createdAt,value
2019-02-18T00:00:53.147Z,2.83
2019-02-18T00:03:39.831Z,2.83
2019-02-18T00:06:10.797Z,3.02
2019-02-18T00:08:41.542Z,2.97
2019-02-18T00:11:12.324Z,3.04
2019-02-18T00:14:02.095Z,2.97
2019-02-18T00:16:48.494Z,2.89
2019-02-18T00:19:57.494Z,2.76
2019-02-18T00:22:40.244Z,2.74
2019-02-18T00:25:30.011Z,2.68
2019-02-18T00:28:12.883Z,2.65
2019-02-18T00:31:02.641Z,2.63
2019-02-18T00:33:46.779Z,2.84
2019-02-18T00:36:31.025Z,2.84
2019-02-18T00:39:20.262Z,2.65
2019-02-18T00:42:09.843Z,2.59
2019-02-18T00:44:52.526Z,2.51
2019-02-18T00:47:23.231Z,2.54
2019-02-18T00:50:13.411Z,2.67
2019-02-18T00:53:04.155Z,2.58
2019-02-18T00:55:47.367Z,2.55
2019-02-18T00:58:37.090Z,2.45
2019-02-18T01:01:19.349Z,2.50
2019-02-18T01:04:09.065Z,2.39
2019-02-18T01:06:51.731Z,2.47
2019-02-18T01:09:41.535Z,2.56
2019-02-18T01:12:31.335Z,2.54
2019-02-18T01:15:21.146Z,2.31
2019-02-18T01:18:10.982Z,2.35
2019-02-18T01:21:00.681Z,2.34
2019-02-18T01:26:54.085Z,2.06
2019-02-18T01:29:36.629Z,2.16
2019-02-18T01:32:26.457Z,1.97
2019-02-18T01:35:16.278Z,1.92
2019-02-18T01:38:06.040Z,1.87
2019-02-18T01:40:55.851Z,1.98
2019-02-18T01:43:45.635Z,1.77
2019-02-18T01:46:54.514Z,1.94
2019-02-18T01:49:44.301Z,1.79
2019-02-18T01:52:34.059Z,1.62
2019-02-18T01:55:16.143Z,1.58
2019-02-18T01:58:05.913Z,1.45
2019-02-18T02:00:55.963Z,1.52
2019-02-18T02:04:04.838Z,1.58
2019-02-18T02:09:50.818Z,1.75
2019-02-18T02:12:40.559Z,1.74
2019-02-18T02:18:32.932Z,1.72
2019-02-18T02:21:03.598Z,1.96
2019-02-18T02:23:53.315Z,1.87
2019-02-18T02:26:35.760Z,1.83
2019-02-18T02:29:25.575Z,1.78
2019-02-18T02:35:19.555Z,1.87
2019-02-18T02:38:07.716Z,1.79
2019-02-18T02:40:52.974Z,1.83
2019-02-18T02:43:34.867Z,1.73
2019-02-18T02:46:24.597Z,1.74
2019-02-18T02:49:08.374Z,1.75
2019-02-18T02:51:58.115Z,1.62
2019-02-18T02:54:40.436Z,1.64
2019-02-18T02:57:30.150Z,1.67
2019-02-18T03:00:13.090Z,1.50
2019-02-18T03:03:02.824Z,1.67
2019-02-18T03:05:45.177Z,1.67
2019-02-18T03:08:34.899Z,1.62
2019-02-18T03:11:24.623Z,1.45
2019-02-18T03:14:07.203Z,1.44
2019-02-18T03:16:56.899Z,1.39
2019-02-18T03:19:39.376Z,1.25
2019-02-18T03:22:29.188Z,1.43
2019-02-18T03:25:28.402Z,1.47
2019-02-18T03:28:29.436Z,1.56
2019-02-18T03:31:11.253Z,1.54
2019-02-18T03:33:55.857Z,1.45
2019-02-18T03:39:49.362Z,1.41
2019-02-18T03:42:32.231Z,1.48
2019-02-18T03:45:21.986Z,1.45
2019-02-18T03:48:11.703Z,1.26
2019-02-18T03:50:54.174Z,1.35
2019-02-18T03:57:06.665Z,1.31
2019-02-18T03:59:53.607Z,1.40
2019-02-18T04:02:36.320Z,1.21
2019-02-18T04:05:26.097Z,1.25
2019-02-18T04:08:15.848Z,1.18
2019-02-18T04:11:05.664Z,1.00
2019-02-18T04:13:55.473Z,0.95
2019-02-18T04:16:45.343Z,1.14
2019-02-18T04:19:35.269Z,0.95
2019-02-18T04:22:25.143Z,0.98
2019-02-18T04:30:56.997Z,1.06
2019-02-18T04:33:43.218Z,1.12
2019-02-18T04:36:26.006Z,0.93
2019-02-18T04:39:15.771Z,1.16
2019-02-18T04:42:05.658Z,1.10
2019-02-18T04:44:55.433Z,1.14
2019-02-18T04:47:45.220Z,1.07
2019-02-18T04:50:34.988Z,1.11
2019-02-18T04:53:24.746Z,1.09
2019-02-18T04:56:14.710Z,0.89
2019-02-18T04:59:04.433Z,0.92
2019-02-18T05:01:46.743Z,1.04
2019-02-18T05:04:36.558Z,1.00
2019-02-18T05:07:45.451Z,0.92
2019-02-18T05:10:35.164Z,0.83
2019-02-18T05:13:24.899Z,0.97
2019-02-18T05:16:07.763Z,0.88
2019-02-18T05:19:10.599Z,0.88
2019-02-18T05:21:52.885Z,0.78
2019-02-18T05:24:42.601Z,0.74
2019-02-18T05:27:32.994Z,0.74
2019-02-18T05:30:16.964Z,0.81
2019-02-18T05:32:59.729Z,0.76
2019-02-18T05:36:08.577Z,0.73
2019-02-18T05:38:51.457Z,0.88
2019-02-18T05:41:41.198Z,0.87
2019-02-18T05:44:23.155Z,0.73
2019-02-18T05:47:12.907Z,0.69
2019-02-18T05:49:55.648Z,0.56
2019-02-18T05:55:46.482Z,0.62
2019-02-18T05:58:36.227Z,0.42
2019-02-18T06:01:19.870Z,0.40
2019-02-18T06:04:09.606Z,0.24
2019-02-18T06:06:51.664Z,0.27
2019-02-18T06:09:41.417Z,0.28
2019-02-18T06:12:23.474Z,0.38
2019-02-18T06:15:08.425Z,0.64
2019-02-18T06:17:58.318Z,0.47
2019-02-18T06:21:03.331Z,0.44
2019-02-18T06:23:46.134Z,0.39
2019-02-18T06:26:35.873Z,0.39
2019-02-18T06:29:18.264Z,0.39
2019-02-18T06:32:08.387Z,0.37
2019-02-18T06:34:50.344Z,0.49
2019-02-18T06:40:28.709Z,0.42
2019-02-18T06:43:18.413Z,0.48
2019-02-18T06:46:20.590Z,0.35
2019-02-18T06:49:29.506Z,0.52
2019-02-18T06:52:11.919Z,0.62
2019-02-18T06:55:01.628Z,0.46
2019-02-18T06:58:12.606Z,0.50
2019-02-18T07:00:59.339Z,0.49
2019-02-18T07:04:07.896Z,0.46
2019-02-18T07:07:16.522Z,0.59
2019-02-18T07:10:10.420Z,0.54
2019-02-18T07:13:00.280Z,0.51
2019-02-18T07:15:42.764Z,0.63
2019-02-18T07:18:45.146Z,0.72
2019-02-18T07:21:27.886Z,0.74
2019-02-18T07:24:17.592Z,1.13
2019-02-18T07:26:59.784Z,1.01
2019-02-18T07:29:49.506Z,0.94
2019-02-18T07:32:31.765Z,1.03
2019-02-18T07:35:21.460Z,1.24
2019-02-18T07:38:03.513Z,1.21
2019-02-18T07:40:53.233Z,1.27
2019-02-18T07:43:35.592Z,1.16
2019-02-18T07:46:25.350Z,1.15
2019-02-18T07:49:08.068Z,1.12
2019-02-18T07:51:57.852Z,1.11
2019-02-18T07:54:39.930Z,1.05
2019-02-18T07:57:29.687Z,1.01
2019-02-18T08:00:13.040Z,1.01
2019-02-18T08:03:02.769Z,0.72
2019-02-18T08:05:44.760Z,0.64
2019-02-18T08:08:34.516Z,0.38
2019-02-18T08:11:16.518Z,0.46
2019-02-18T08:14:06.231Z,0.75
2019-02-18T08:16:48.281Z,0.81
2019-02-18T08:19:38.001Z,0.81
2019-02-18T08:22:19.999Z,0.91
2019-02-18T08:28:25.575Z,1.10
2019-02-18T08:31:15.519Z,1.26
2019-02-18T08:33:57.848Z,1.34
2019-02-18T08:36:47.635Z,1.55
2019-02-18T08:39:37.397Z,1.59
2019-02-18T08:42:27.205Z,1.60
2019-02-18T08:45:17.137Z,1.76
2019-02-18T08:48:07.120Z,1.79
2019-02-18T08:50:56.899Z,2.00
2019-02-18T08:53:47.953Z,2.16
2019-02-18T08:56:31.068Z,2.28
2019-02-18T08:59:20.841Z,2.30
2019-02-18T09:02:10.582Z,2.43
2019-02-18T09:04:52.791Z,2.49
2019-02-18T09:07:42.557Z,2.47
2019-02-18T09:10:33.171Z,2.49
2019-02-18T09:13:16.715Z,2.76
2019-02-18T09:16:20.420Z,2.79
2019-02-18T09:19:02.938Z,2.84
2019-02-18T09:25:23.285Z,3.18
2019-02-18T09:28:13.026Z,3.26
2019-02-18T09:30:56.375Z,3.56
2019-02-18T09:33:46.152Z,3.62
2019-02-18T09:36:28.341Z,3.73
2019-02-18T09:42:03.972Z,3.78
2019-02-18T09:44:53.683Z,4.05
2019-02-18T09:47:36.095Z,4.51
2019-02-18T09:50:25.837Z,4.72
2019-02-18T09:53:08.114Z,4.75
2019-02-18T09:55:58.677Z,4.79
2019-02-18T09:58:45.016Z,4.77
2019-02-18T10:01:34.794Z,4.79
2019-02-18T10:04:17.647Z,5.03
2019-02-18T10:07:07.408Z,5.12
2019-02-18T10:09:57.445Z,5.16
2019-02-18T10:13:00.082Z,5.42
2019-02-18T10:15:44.729Z,5.48
2019-02-18T10:18:34.561Z,5.48
2019-02-18T10:21:18.940Z,5.56
2019-02-18T10:27:04.884Z,5.52
2019-02-18T10:29:54.635Z,5.83
2019-02-18T10:32:37.325Z,5.95
2019-02-18T10:35:27.034Z,6.12
2019-02-18T10:38:09.333Z,6.19
2019-02-18T10:41:06.373Z,6.34
2019-02-18T10:43:43.280Z,6.42
2019-02-18T10:46:33.024Z,6.57
2019-02-18T10:49:19.917Z,6.79
2019-02-18T10:52:07.173Z,7.03
2019-02-18T10:54:51.302Z,6.85
2019-02-18T10:57:41.046Z,6.94
2019-02-18T11:00:23.016Z,7.03
2019-02-18T11:03:12.732Z,7.20
2019-02-18T11:05:55.222Z,7.34
2019-02-18T11:11:44.442Z,7.57
2019-02-18T11:14:26.684Z,7.71
2019-02-18T11:17:16.417Z,7.76
2019-02-18T11:20:06.490Z,8.19
2019-02-18T11:22:48.502Z,8.30
2019-02-18T11:25:38.281Z,8.34
2019-02-18T11:28:28.263Z,8.59
2019-02-18T11:30:58.923Z,8.62
2019-02-18T11:33:48.623Z,8.75
2019-02-18T11:36:31.164Z,8.78
2019-02-18T11:39:40.015Z,8.89
2019-02-18T11:42:29.740Z,9.18
2019-02-18T11:45:12.725Z,9.29
2019-02-18T11:48:02.583Z,9.45
2019-02-18T11:50:52.482Z,9.56
2019-02-18T11:54:01.398Z,9.61
2019-02-18T11:56:51.142Z,9.68
2019-02-18T11:59:40.925Z,9.87
2019-02-18T12:02:30.639Z,9.90
2019-02-18T12:05:20.383Z,9.99
2019-02-18T12:08:10.107Z,10.00
2019-02-18T12:10:52.581Z,10.15
2019-02-18T12:13:42.364Z,10.33
2019-02-18T12:16:28.151Z,10.30
2019-02-18T12:19:17.919Z,10.19
2019-02-18T12:22:07.697Z,10.45
2019-02-18T12:24:57.421Z,10.75
2019-02-18T12:28:06.233Z,10.54
2019-02-18T12:30:48.942Z,10.71
2019-02-18T12:33:38.701Z,10.82
2019-02-18T12:36:28.469Z,10.89
2019-02-18T12:39:18.180Z,10.93
2019-02-18T12:42:07.919Z,11.06
2019-02-18T12:44:57.619Z,11.22
2019-02-18T12:47:47.358Z,11.27
2019-02-18T12:50:30.261Z,11.30
2019-02-18T12:53:20.539Z,11.42
2019-02-18T12:56:10.704Z,11.48
2019-02-18T12:59:19.582Z,11.56
2019-02-18T13:02:09.419Z,11.65
2019-02-18T13:04:59.277Z,11.95
2019-02-18T13:10:52.670Z,12.04
2019-02-18T13:13:34.621Z,12.04
2019-02-18T13:16:24.375Z,11.78
2019-02-18T13:19:06.710Z,11.95
2019-02-18T13:22:15.525Z,11.88
2019-02-18T13:24:58.104Z,12.10
2019-02-18T13:27:47.811Z,12.06
2019-02-18T13:30:30.511Z,12.25
2019-02-18T13:33:20.241Z,12.35
2019-02-18T13:36:04.730Z,12.29
2019-02-18T13:38:54.472Z,12.45
2019-02-18T13:41:41.212Z,12.31
2019-02-18T13:44:30.956Z,12.47
2019-02-18T13:47:13.439Z,12.42
2019-02-18T13:50:03.528Z,12.68
2019-02-18T13:52:53.293Z,12.62
2019-02-18T13:55:37.647Z,12.60
2019-02-18T13:58:27.456Z,12.54
2019-02-18T14:01:10.156Z,12.57
2019-02-18T14:03:59.924Z,12.69
2019-02-18T14:06:49.740Z,12.63
2019-02-18T14:09:39.522Z,12.84
2019-02-18T14:12:30.785Z,12.90
2019-02-18T14:15:13.672Z,13.01
2019-02-18T14:18:03.423Z,12.91
2019-02-18T14:20:46.076Z,12.97
2019-02-18T14:23:35.821Z,12.94
2019-02-18T14:26:18.141Z,12.96
2019-02-18T14:29:07.892Z,12.94
2019-02-18T14:31:50.758Z,12.90
2019-02-18T14:34:40.521Z,12.98
2019-02-18T14:37:22.641Z,13.17
2019-02-18T14:43:15.522Z,13.11
2019-02-18T14:49:06.852Z,12.95
2019-02-18T14:51:56.993Z,12.94
2019-02-18T14:54:39.613Z,13.09
2019-02-18T14:57:29.598Z,13.09
2019-02-18T15:00:16.755Z,13.19
2019-02-18T15:03:06.598Z,13.12
2019-02-18T15:05:48.977Z,13.14
2019-02-18T15:08:38.766Z,12.80
2019-02-18T15:11:23.078Z,12.94
2019-02-18T15:14:12.874Z,12.89
2019-02-18T15:16:55.116Z,12.64
2019-02-18T15:19:44.862Z,12.61
2019-02-18T15:22:15.602Z,12.56
2019-02-18T15:25:05.842Z,12.67
2019-02-18T15:27:55.654Z,12.62
2019-02-18T15:30:45.478Z,12.65
2019-02-18T15:33:35.202Z,12.64
2019-02-18T15:36:33.772Z,12.55
2019-02-18T15:39:16.716Z,12.51
2019-02-18T15:42:06.456Z,12.42
2019-02-18T15:44:48.614Z,12.43
2019-02-18T15:47:38.382Z,12.35
2019-02-18T15:50:20.670Z,12.32
2019-02-18T15:53:10.405Z,12.22
2019-02-18T15:55:54.196Z,12.23
2019-02-18T15:58:43.948Z,12.25
2019-02-18T16:01:26.416Z,12.14
2019-02-18T16:04:16.428Z,12.10
2019-02-18T16:06:58.804Z,12.14
2019-02-18T16:10:07.682Z,12.02
2019-02-18T16:12:51.047Z,12.03
2019-02-18T16:15:41.047Z,11.86
2019-02-18T16:18:30.850Z,11.88
2019-02-18T16:21:01.508Z,11.78
2019-02-18T16:23:45.879Z,11.66
2019-02-18T16:26:35.663Z,11.51
2019-02-18T16:29:17.767Z,11.56
2019-02-18T16:32:07.519Z,11.32
2019-02-18T16:35:09.485Z,11.17
2019-02-18T16:37:52.616Z,11.06
2019-02-18T16:40:42.636Z,11.04
2019-02-18T16:43:25.450Z,10.90
2019-02-18T16:46:15.208Z,10.80
2019-02-18T16:48:59.538Z,10.76
2019-02-18T16:51:49.353Z,10.65
2019-02-18T16:54:31.569Z,10.63
2019-02-18T16:57:21.403Z,10.59
2019-02-18T17:00:05.407Z,10.42
2019-02-18T17:02:55.260Z,10.37
2019-02-18T17:05:37.227Z,10.27
2019-02-18T17:08:27.001Z,10.15
2019-02-18T17:11:09.878Z,9.99
2019-02-18T17:14:18.677Z,9.93
2019-02-18T17:17:01.943Z,9.78
2019-02-18T17:19:51.703Z,9.55
2019-02-18T17:22:33.696Z,9.57
2019-02-18T17:25:23.433Z,9.54
2019-02-18T17:28:05.927Z,9.29
2019-02-18T17:33:57.374Z,8.77
2019-02-18T17:36:47.141Z,8.78
2019-02-18T17:39:30.901Z,8.74
2019-02-18T17:42:20.639Z,8.68
2019-02-18T17:45:03.139Z,8.64
2019-02-18T17:47:52.901Z,8.58
2019-02-18T17:50:35.379Z,8.47
2019-02-18T17:53:25.258Z,8.52
2019-02-18T17:56:07.912Z,8.37
2019-02-18T18:02:01.044Z,8.25
2019-02-18T18:05:09.875Z,8.03
2019-02-18T18:07:52.185Z,8.17
2019-02-18T18:10:42.234Z,8.25
2019-02-18T18:13:32.139Z,8.12
2019-02-18T18:16:15.831Z,8.05
2019-02-18T18:19:09.344Z,7.94
2019-02-18T18:21:49.389Z,7.63
2019-02-18T18:24:39.194Z,7.63
2019-02-18T18:27:28.983Z,7.69
2019-02-18T18:30:18.790Z,7.52
2019-02-18T18:33:27.657Z,7.46
2019-02-18T18:35:58.294Z,7.22
2019-02-18T18:38:48.026Z,7.28
2019-02-18T18:41:32.418Z,7.13
2019-02-18T18:44:22.234Z,7.17
2019-02-18T18:47:12.061Z,7.09
2019-02-18T18:50:01.884Z,6.99
2019-02-18T18:52:51.684Z,6.91
2019-02-18T18:56:00.590Z,6.93
2019-02-18T18:58:45.946Z,6.94
2019-02-18T19:01:54.804Z,6.81
2019-02-18T19:04:44.501Z,6.89
2019-02-18T19:07:26.710Z,6.90
2019-02-18T19:10:16.760Z,6.71
2019-02-18T19:13:06.520Z,6.72
2019-02-18T19:15:56.242Z,6.79
2019-02-18T19:18:45.990Z,6.72
2019-02-18T19:21:28.356Z,6.68
2019-02-18T19:27:04.938Z,6.51
2019-02-18T19:29:54.720Z,6.44
2019-02-18T19:32:44.556Z,6.40
2019-02-18T19:35:34.414Z,6.50
2019-02-18T19:41:17.290Z,6.19
2019-02-18T19:44:07.065Z,6.32
2019-02-18T19:46:51.075Z,6.13
2019-02-18T19:52:44.011Z,6.08
2019-02-18T19:55:26.057Z,5.91
2019-02-18T19:58:15.879Z,6.01
2019-02-18T20:00:59.814Z,5.83
2019-02-18T20:03:41.810Z,6.01
2019-02-18T20:06:31.592Z,5.93
2019-02-18T20:09:15.536Z,5.95
2019-02-18T20:15:01.185Z,5.64
2019-02-18T20:17:51.250Z,5.73
2019-02-18T20:20:41.077Z,5.87
2019-02-18T20:26:25.081Z,5.81
2019-02-18T20:28:56.128Z,5.74
2019-02-18T20:31:46.025Z,5.79
2019-02-18T20:34:28.796Z,5.81
2019-02-18T20:37:18.909Z,5.69
2019-02-18T20:40:08.872Z,5.66
2019-02-18T20:42:52.670Z,5.71
2019-02-18T20:51:42.098Z,5.66
2019-02-18T20:54:32.081Z,5.56
2019-02-18T20:57:14.885Z,5.63
2019-02-18T21:03:07.841Z,5.55
2019-02-18T21:09:01.079Z,5.53
2019-02-18T21:11:50.780Z,5.52
2019-02-18T21:14:33.651Z,5.51
2019-02-18T21:17:23.767Z,5.53
2019-02-18T21:20:06.103Z,5.49
2019-02-18T21:22:55.841Z,5.48
2019-02-18T21:25:38.495Z,5.44
2019-02-18T21:34:32.127Z,5.42
2019-02-18T21:37:02.782Z,5.42
2019-02-18T21:39:52.513Z,5.41
2019-02-18T21:45:39.327Z,5.40
2019-02-18T21:48:29.125Z,5.46
2019-02-18T21:51:12.155Z,5.31
2019-02-18T21:57:05.185Z,5.45
2019-02-18T21:59:48.029Z,5.45
2019-02-18T22:02:37.844Z,5.33
2019-02-18T22:05:27.649Z,5.31
2019-02-18T22:14:18.950Z,5.36
2019-02-18T22:17:11.388Z,5.34
2019-02-18T22:19:53.823Z,5.40
2019-02-18T22:25:37.407Z,5.32
2019-02-18T22:28:29.539Z,5.36
2019-02-18T22:31:19.286Z,5.29
2019-02-18T22:34:01.535Z,5.30
2019-02-18T22:36:51.250Z,5.30
2019-02-18T22:39:41.009Z,5.30
2019-02-18T22:42:25.339Z,5.26
2019-02-18T22:45:15.105Z,5.23
2019-02-18T22:51:03.009Z,5.23
2019-02-18T22:53:52.886Z,5.08
2019-02-18T22:56:35.031Z,5.15
2019-02-18T22:59:24.761Z,5.15
2019-02-18T23:02:06.807Z,5.22
2019-02-18T23:04:56.554Z,5.13
2019-02-18T23:07:38.872Z,5.07
2019-02-18T23:10:28.727Z,5.23
2019-02-18T23:13:11.612Z,5.17
2019-02-18T23:16:01.564Z,5.26
2019-02-18T23:18:44.183Z,5.24
2019-02-18T23:21:15.157Z,5.06
2019-02-18T23:23:59.531Z,5.15
2019-02-18T23:26:49.315Z,5.23
2019-02-18T23:29:31.616Z,5.25
2019-02-18T23:32:13.988Z,5.23
2019-02-18T23:35:03.833Z,5.20
2019-02-18T23:37:53.897Z,5.08
2019-02-18T23:45:59.768Z,5.21
2019-02-18T23:48:49.540Z,5.18
2019-02-18T23:51:35.844Z,5.18
2019-02-18T23:54:17.926Z,4.97
2019-02-18T23:57:08.536Z,5.09
2019-02-18T23:59:58.508Z,5.13
